Time;durP1;ratioP1;P1;durP2;ratioP2;P2;SDS_P1;SDS_P2;PMS_P1;PMS_P2;Temp;Humidity;BMP_temperature;BMP_pressure;BME280_temperature;BME280_humidity;BME280_pressure;Samples;Min_cycle;Max_cycle;Signal;HPM_P1;HPM_P2
2022/12/23 00:00:36;;;;;;;66.22;27.58;;;;;;;;;;5070484;28;20043;-64
2022/12/23 00:03:02;;;;;;;68.47;29.25;;;;;;;;;;5070565;28;20371;-64
2022/12/23 00:05:29;;;;;;;62.30;28.40;;;;;;;;;;5070315;28;20043;-64
2022/12/23 00:07:55;;;;;;;70.82;29.90;;;;;;;;;;5070596;28;20041;-64
2022/12/23 00:10:21;;;;;;;67.82;30.08;;;;;;;;;;5070672;28;20115;-64
2022/12/23 00:15:32;;;;;;;64.22;28.00;;;;;;;;;;5090570;28;20123;-64
2022/12/23 00:17:58;;;;;;;75.95;30.42;;;;;;;;;;5090391;28;20123;-64
2022/12/23 00:20:24;;;;;;;69.15;31.23;;;;;;;;;;5090818;28;20044;-64
2022/12/23 00:23:05;;;;;;;65.95;30.23;;;;;;;;;;5090325;28;20044;-64
2022/12/23 00:25:43;;;;;;;63.40;29.08;;;;;;;;;;5086241;28;20029;-64
2022/12/23 00:28:10;;;;;;;61.40;27.67;;;;;;;;;;5070210;28;20082;-64
2022/12/23 00:30:56;;;;;;;61.70;29.50;;;;;;;;;;5070626;28;20040;-64
2022/12/23 00:33:24;;;;;;;58.83;27.63;;;;;;;;;;5056184;28;20055;-64
2022/12/23 00:35:50;;;;;;;54.65;27.02;;;;;;;;;;5069961;28;20467;-64
2022/12/23 00:42:52;;;;;;;64.82;28.52;;;;;;;;;;5070537;28;20101;-64
2022/12/23 00:43:49;;;;;;;62.28;28.92;;;;;;;;;;5069997;28;20491;-64
2022/12/23 00:46:15;;;;;;;60.22;28.27;;;;;;;;;;5070179;28;20068;-64
2022/12/23 00:51:25;;;;;;;58.10;26.58;;;;;;;;;;5069836;28;20406;-64
2022/12/23 00:53:51;;;;;;;57.50;27.92;;;;;;;;;;5070226;28;20040;-64
2022/12/23 00:56:17;;;;;;;73.57;29.85;;;;;;;;;;5070221;28;20127;-64
2022/12/23 00:58:43;;;;;;;95.07;30.08;;;;;;;;;;5069546;28;20044;-64
2022/12/23 01:06:39;;;;;;;59.35;29.13;;;;;;;;;;5069701;28;20052;-64
2022/12/23 01:09:05;;;;;;;65.03;28.35;;;;;;;;;;5066140;28;20039;-64
2022/12/23 01:11:32;;;;;;;65.57;29.65;;;;;;;;;;5085322;28;20040;-64
2022/12/23 01:13:58;;;;;;;69.38;29.98;;;;;;;;;;5089422;28;20040;-64
2022/12/23 01:16:24;;;;;;;71.13;30.75;;;;;;;;;;5090518;28;20055;-64
2022/12/23 01:18:50;;;;;;;61.55;27.30;;;;;;;;;;5093754;28;20643;-64
2022/12/23 01:21:16;;;;;;;77.97;30.35;;;;;;;;;;5093391;28;20052;-64
2022/12/23 01:23:42;;;;;;;67.68;29.00;;;;;;;;;;5093985;28;20036;-64
2022/12/23 01:26:08;;;;;;;64.70;29.48;;;;;;;;;;5084001;28;20433;-64
2022/12/23 01:28:35;;;;;;;62.60;29.00;;;;;;;;;;5073217;28;20044;-64
2022/12/23 01:31:02;;;;;;;59.95;28.83;;;;;;;;;;5073470;28;20119;-64
2022/12/23 01:33:28;;;;;;;70.43;30.27;;;;;;;;;;5073219;28;20044;-64
2022/12/23 01:36:01;;;;;;;79.47;30.52;;;;;;;;;;5072967;28;20403;-64
2022/12/23 01:38:27;;;;;;;63.75;29.38;;;;;;;;;;5073321;28;20032;-64
2022/12/23 01:40:54;;;;;;;74.72;29.55;;;;;;;;;;5073304;28;20047;-64
2022/12/23 01:43:20;;;;;;;70.95;30.00;;;;;;;;;;5072656;28;20051;-64
2022/12/23 01:45:46;;;;;;;66.70;28.85;;;;;;;;;;5073294;28;20091;-64
2022/12/23 01:48:21;;;;;;;70.63;29.35;;;;;;;;;;5073256;28;20109;-64
2022/12/23 01:50:59;;;;;;;69.40;30.60;;;;;;;;;;5072857;28;20060;-64
2022/12/23 01:53:25;;;;;;;114.75;32.42;;;;;;;;;;5073043;28;20418;-64
2022/12/23 01:55:54;;;;;;;68.18;30.33;;;;;;;;;;5073061;28;20037;-64
2022/12/23 01:58:26;;;;;;;64.00;28.70;;;;;;;;;;5072680;28;20076;-64
2022/12/23 02:03:41;;;;;;;65.32;27.92;;;;;;;;;;5072900;28;20471;-64
2022/12/23 02:12:00;;;;;;;68.65;28.88;;;;;;;;;;5090645;28;20058;-64
2022/12/23 02:17:50;;;;;;;102.07;31.90;;;;;;;;;;5092969;28;20044;-64
2022/12/23 02:20:43;;;;;;;76.03;30.25;;;;;;;;;;5050664;28;20206;-64
2022/12/23 02:23:28;;;;;;;87.82;31.23;;;;;;;;;;5092646;28;20416;-64
2022/12/23 02:26:12;;;;;;;85.53;31.05;;;;;;;;;;5084715;28;20048;-64
2022/12/23 02:28:44;;;;;;;85.53;30.80;;;;;;;;;;5072040;28;20044;-64
2022/12/23 02:31:10;;;;;;;79.50;29.92;;;;;;;;;;5072477;28;20044;-64
2022/12/23 02:33:39;;;;;;;76.30;29.17;;;;;;;;;;5071058;28;20036;-64
2022/12/23 02:36:10;;;;;;;80.30;27.75;;;;;;;;;;5072001;28;20044;-64
2022/12/23 02:38:36;;;;;;;78.88;27.48;;;;;;;;;;5071993;28;20048;-64
2022/12/23 02:41:15;;;;;;;63.45;26.98;;;;;;;;;;5072166;28;20036;-65
2022/12/23 02:43:56;;;;;;;69.55;26.23;;;;;;;;;;5071937;28;20052;-65
2022/12/23 02:46:22;;;;;;;65.78;25.50;;;;;;;;;;5072001;28;20062;-65
2022/12/23 02:48:53;;;;;;;64.72;26.70;;;;;;;;;;5071365;28;20127;-65
2022/12/23 02:51:21;;;;;;;57.35;24.73;;;;;;;;;;5071983;28;20045;-65
2022/12/23 02:53:50;;;;;;;61.95;25.35;;;;;;;;;;5071667;28;20135;-65
2022/12/23 02:56:18;;;;;;;67.03;25.73;;;;;;;;;;5071483;28;20038;-65
2022/12/23 02:58:46;;;;;;;80.07;26.25;;;;;;;;;;5071789;28;20482;-65
2022/12/23 03:01:14;;;;;;;59.28;23.98;;;;;;;;;;5071666;28;20041;-65
2022/12/23 03:03:40;;;;;;;60.70;24.85;;;;;;;;;;5071228;28;20041;-65
2022/12/23 03:06:15;;;;;;;66.28;25.98;;;;;;;;;;5071694;28;20052;-65
2022/12/23 03:08:43;;;;;;;58.25;24.60;;;;;;;;;;5070652;28;20079;-65
2022/12/23 03:11:11;;;;;;;69.07;25.55;;;;;;;;;;5080120;28;20044;-65
2022/12/23 03:13:56;;;;;;;80.00;25.48;;;;;;;;;;5091614;28;20051;-65
2022/12/23 03:16:48;;;;;;;82.50;27.83;;;;;;;;;;5091913;28;20047;-64
2022/12/23 03:19:31;;;;;;;65.28;24.35;;;;;;;;;;5090924;28;20445;-64
2022/12/23 03:22:08;;;;;;;67.47;25.20;;;;;;;;;;5091644;28;20067;-64
2022/12/23 03:24:47;;;;;;;70.85;27.30;;;;;;;;;;5091446;28;20124;-64
2022/12/23 03:27:20;;;;;;;67.20;24.95;;;;;;;;;;5072205;28;20046;-64
2022/12/23 03:30:01;;;;;;;67.03;24.17;;;;;;;;;;5071448;28;20048;-64
2022/12/23 03:32:28;;;;;;;65.57;23.33;;;;;;;;;;5070915;28;20040;-64
2022/12/23 03:34:56;;;;;;;66.35;23.00;;;;;;;;;;5070713;28;20033;-64
2022/12/23 03:37:24;;;;;;;72.55;23.88;;;;;;;;;;5071193;28;20051;-64
2022/12/23 03:39:58;;;;;;;62.42;24.15;;;;;;;;;;5070707;28;20040;-64
2022/12/23 03:42:26;;;;;;;63.58;21.92;;;;;;;;;;5070533;28;20044;-64
2022/12/23 03:44:53;;;;;;;57.42;22.25;;;;;;;;;;5071087;28;20122;-64
2022/12/23 03:47:22;;;;;;;55.72;21.33;;;;;;;;;;5070920;28;20040;-64
2022/12/23 03:50:08;;;;;;;65.32;21.15;;;;;;;;;;5070762;28;20040;-64
2022/12/23 03:52:37;;;;;;;55.13;20.33;;;;;;;;;;5070468;28;20032;-64
2022/12/23 03:55:05;;;;;;;57.40;20.88;;;;;;;;;;5071034;28;20561;-64
2022/12/23 03:57:39;;;;;;;54.50;19.88;;;;;;;;;;5070478;28;20068;-64
2022/12/23 04:00:06;;;;;;;56.13;19.95;;;;;;;;;;5070954;28;20470;-64
2022/12/23 04:02:38;;;;;;;72.25;20.55;;;;;;;;;;5070707;28;20080;-64
2022/12/23 04:05:04;;;;;;;;;;;;;;;;;;5071227;28;20040;-64
2022/12/23 04:07:33;;;;;;;51.78;18.45;;;;;;;;;;5070825;28;20250;-64
2022/12/23 04:10:00;;;;;;;41.95;17.63;;;;;;;;;;5068680;28;20085;-64
2022/12/23 04:12:27;;;;;;;55.72;19.08;;;;;;;;;;5090822;28;20363;-64
2022/12/23 04:14:53;;;;;;;51.20;18.42;;;;;;;;;;5090778;28;20043;-64
2022/12/23 04:17:19;;;;;;;46.13;18.27;;;;;;;;;;5090667;28;20791;-64
2022/12/23 04:19:46;;;;;;;44.08;18.42;;;;;;;;;;5090195;28;20109;-64
2022/12/23 04:22:12;;;;;;;42.63;18.17;;;;;;;;;;5090701;28;20482;-64
2022/12/23 04:24:38;;;;;;;44.90;18.58;;;;;;;;;;5090495;28;20132;-64
2022/12/23 04:27:05;;;;;;;40.00;17.00;;;;;;;;;;5073055;28;20501;-64
2022/12/23 04:29:31;;;;;;;40.50;17.48;;;;;;;;;;5070493;28;20136;-64
2022/12/23 04:31:57;;;;;;;45.08;18.20;;;;;;;;;;5070513;28;20123;-64
2022/12/23 04:34:23;;;;;;;44.42;17.55;;;;;;;;;;5070175;28;20124;-64
2022/12/23 04:36:49;;;;;;;44.85;18.88;;;;;;;;;;5070535;28;20055;-64
2022/12/23 04:39:15;;;;;;;42.80;18.02;;;;;;;;;;5070313;28;20044;-64
2022/12/23 04:41:41;;;;;;;42.97;17.52;;;;;;;;;;5069795;28;20052;-64
2022/12/23 04:44:07;;;;;;;47.05;18.02;;;;;;;;;;5070386;28;20463;-64
2022/12/23 04:46:33;;;;;;;48.50;17.98;;;;;;;;;;5070422;28;20037;-64
2022/12/23 04:48:59;;;;;;;46.72;18.67;;;;;;;;;;5069938;28;20068;-64
2022/12/23 04:51:26;;;;;;;54.25;18.63;;;;;;;;;;5070697;28;20047;-65
2022/12/23 04:53:52;;;;;;;58.55;20.10;;;;;;;;;;5074097;28;20063;-65
2022/12/23 04:56:18;;;;;;;44.13;19.40;;;;;;;;;;5073847;28;20633;-65
2022/12/23 04:58:44;;;;;;;56.13;19.25;;;;;;;;;;5074233;28;20505;-64
2022/12/23 05:01:11;;;;;;;49.50;18.90;;;;;;;;;;5072814;28;20082;-64
2022/12/23 05:03:38;;;;;;;50.25;19.10;;;;;;;;;;5073558;28;20415;-64
2022/12/23 05:06:04;;;;;;;43.25;17.67;;;;;;;;;;5074093;28;20479;-64
2022/12/23 05:08:30;;;;;;;53.88;18.10;;;;;;;;;;5073936;28;20120;-64
2022/12/23 05:10:56;;;;;;;67.22;19.05;;;;;;;;;;5079840;28;20883;-64
2022/12/23 05:13:22;;;;;;;60.60;17.50;;;;;;;;;;5093936;28;20603;-64
2022/12/23 05:15:49;;;;;;;52.17;19.17;;;;;;;;;;5093963;28;20036;-64
2022/12/23 05:18:15;;;;;;;56.53;18.60;;;;;;;;;;5093655;28;20044;-64
2022/12/23 05:20:41;;;;;;;78.72;21.00;;;;;;;;;;5093942;28;20040;-64
2022/12/23 05:23:07;;;;;;;54.20;17.75;;;;;;;;;;5093893;28;20036;-64
2022/12/23 05:25:34;;;;;;;80.03;19.05;;;;;;;;;;5088640;28;20037;-64
2022/12/23 05:28:00;;;;;;;65.90;19.52;;;;;;;;;;5073763;28;20032;-64
2022/12/23 05:30:26;;;;;;;103.70;20.40;;;;;;;;;;5073611;28;20794;-64
2022/12/23 05:32:56;;;;;;;82.32;18.95;;;;;;;;;;5073036;28;20127;-64
2022/12/23 05:35:23;;;;;;;93.18;19.23;;;;;;;;;;5072742;28;20071;-64
2022/12/23 05:37:49;;;;;;;68.78;18.88;;;;;;;;;;5073466;28;20044;-64
2022/12/23 05:40:15;;;;;;;49.28;18.35;;;;;;;;;;5073090;28;20044;-64
2022/12/23 05:42:41;;;;;;;106.97;20.50;;;;;;;;;;5073706;28;20040;-64
2022/12/23 05:45:07;;;;;;;107.72;19.42;;;;;;;;;;5073317;28;20040;-64
2022/12/23 05:47:33;;;;;;;77.47;18.92;;;;;;;;;;5073344;28;20391;-64
2022/12/23 05:49:59;;;;;;;172.93;24.98;;;;;;;;;;5073743;28;20044;-64
2022/12/23 05:52:25;;;;;;;211.93;22.38;;;;;;;;;;5069956;28;20033;-64
2022/12/23 05:54:51;;;;;;;166.98;19.63;;;;;;;;;;5060253;28;20064;-64
2022/12/23 05:57:17;;;;;;;372.88;24.25;;;;;;;;;;5053372;28;20049;-64
2022/12/23 05:59:44;;;;;;;287.27;24.40;;;;;;;;;;5053423;28;20048;-64
2022/12/23 06:02:10;;;;;;;232.95;20.88;;;;;;;;;;5052518;28;20052;-64
2022/12/23 06:04:36;;;;;;;127.95;17.63;;;;;;;;;;5053154;28;20052;-64
2022/12/23 06:07:02;;;;;;;131.15;18.73;;;;;;;;;;5052984;28;20037;-64
2022/12/23 06:09:28;;;;;;;222.48;22.23;;;;;;;;;;5059884;28;20036;-64
2022/12/23 06:11:54;;;;;;;219.98;21.25;;;;;;;;;;5093516;28;20048;-65
2022/12/23 06:14:20;;;;;;;215.10;19.70;;;;;;;;;;5093271;28;20457;-65
2022/12/23 06:16:46;;;;;;;199.63;20.05;;;;;;;;;;5093118;28;20075;-64
2022/12/23 06:19:12;;;;;;;87.15;16.30;;;;;;;;;;5093104;28;20087;-64
2022/12/23 06:21:38;;;;;;;119.35;18.30;;;;;;;;;;5093203;28;20071;-64
2022/12/23 06:24:04;;;;;;;126.90;18.15;;;;;;;;;;5092716;28;20036;-64
2022/12/23 06:26:30;;;;;;;212.43;20.80;;;;;;;;;;5074217;28;20115;-64
2022/12/23 06:28:56;;;;;;;111.63;16.80;;;;;;;;;;5072808;28;20638;-64
2022/12/23 06:31:22;;;;;;;132.10;17.65;;;;;;;;;;5071990;28;20037;-61
2022/12/23 06:33:48;;;;;;;103.50;17.15;;;;;;;;;;5084037;28;20044;-61
2022/12/23 06:36:14;;;;;;;95.90;17.58;;;;;;;;;;5064986;28;20378;-61
2022/12/23 06:38:40;;;;;;;54.70;16.35;;;;;;;;;;5056068;28;20047;-61
2022/12/23 06:41:07;;;;;;;103.10;18.50;;;;;;;;;;5066144;28;20044;-61
2022/12/23 06:43:33;;;;;;;85.10;16.42;;;;;;;;;;5072094;28;20408;-61
2022/12/23 06:45:59;;;;;;;93.25;16.95;;;;;;;;;;5071340;28;20037;-61
2022/12/23 06:48:25;;;;;;;78.88;16.27;;;;;;;;;;5063862;28;20049;-61
2022/12/23 06:50:51;;;;;;;49.63;16.00;;;;;;;;;;5052153;28;20047;-61
2022/12/23 06:53:17;;;;;;;59.58;15.18;;;;;;;;;;5066608;28;20037;-61
2022/12/23 06:55:43;;;;;;;46.80;15.95;;;;;;;;;;5070569;28;20044;-60
2022/12/23 06:58:09;;;;;;;83.05;16.45;;;;;;;;;;5072230;28;20035;-60
2022/12/23 07:00:35;;;;;;;60.78;16.60;;;;;;;;;;5070556;28;20074;-61
2022/12/23 07:03:01;;;;;;;61.90;16.08;;;;;;;;;;5071624;28;20041;-60
2022/12/23 07:05:27;;;;;;;106.85;17.08;;;;;;;;;;5071751;28;20044;-59
2022/12/23 07:07:53;;;;;;;49.95;14.88;;;;;;;;;;5071508;28;20043;-59
2022/12/23 07:10:19;;;;;;;46.78;14.75;;;;;;;;;;5078864;28;20039;-59
2022/12/23 07:12:45;;;;;;;47.25;15.52;;;;;;;;;;5071573;28;20041;-61
2022/12/23 07:15:11;;;;;;;50.60;15.45;;;;;;;;;;5050472;28;20036;-61
2022/12/23 07:17:37;;;;;;;37.33;15.00;;;;;;;;;;5051685;28;20045;-61
2022/12/23 07:20:04;;;;;;;75.97;16.00;;;;;;;;;;5062640;28;20064;-61
2022/12/23 07:22:30;;;;;;;69.22;15.70;;;;;;;;;;5069952;28;20059;-60
2022/12/23 07:24:56;;;;;;;77.57;17.58;;;;;;;;;;5073373;28;20052;-60
2022/12/23 07:27:22;;;;;;;45.00;15.30;;;;;;;;;;5071062;28;20032;-60
2022/12/23 07:29:49;;;;;;;95.88;17.88;;;;;;;;;;5070629;28;20074;-61
2022/12/23 07:32:15;;;;;;;85.60;16.80;;;;;;;;;;5068437;28;20119;-60
2022/12/23 07:34:41;;;;;;;56.08;16.00;;;;;;;;;;5061069;28;20424;-63
2022/12/23 07:37:07;;;;;;;78.47;15.98;;;;;;;;;;5068730;28;20079;-62
2022/12/23 07:39:33;;;;;;;57.65;16.60;;;;;;;;;;5069910;28;20055;-63
2022/12/23 07:41:59;;;;;;;124.05;18.80;;;;;;;;;;5070320;28;20460;-63
2022/12/23 07:44:25;;;;;;;83.78;18.48;;;;;;;;;;5069701;28;20148;-63
2022/12/23 07:46:51;;;;;;;108.93;18.13;;;;;;;;;;5069316;28;20068;-64
2022/12/23 07:49:17;;;;;;;78.70;17.92;;;;;;;;;;5066647;28;20036;-64
2022/12/23 07:51:43;;;;;;;85.80;18.25;;;;;;;;;;5069530;28;20041;-64
2022/12/23 07:54:12;;;;;;;101.97;17.30;;;;;;;;;;5069772;28;20458;-63
2022/12/23 07:56:38;;;;;;;72.90;18.42;;;;;;;;;;5070466;28;20037;-64
2022/12/23 07:59:04;;;;;;;54.47;16.13;;;;;;;;;;5069681;28;20067;-64
2022/12/23 08:01:30;;;;;;;69.60;17.80;;;;;;;;;;5067762;28;20055;-63
2022/12/23 08:03:56;;;;;;;66.30;18.42;;;;;;;;;;5068736;28;20756;-65
2022/12/23 08:06:22;;;;;;;47.30;16.25;;;;;;;;;;5068532;28;20045;-66
2022/12/23 08:08:48;;;;;;;83.00;18.27;;;;;;;;;;5069286;28;20154;-67
2022/12/23 08:11:14;;;;;;;83.88;16.85;;;;;;;;;;5078104;28;20058;-65
2022/12/23 08:13:41;;;;;;;60.95;16.15;;;;;;;;;;5047132;28;20494;-65
2022/12/23 08:16:08;;;;;;;47.72;15.90;;;;;;;;;;5067724;28;20036;-65
2022/12/23 08:18:35;;;;;;;42.90;15.73;;;;;;;;;;5068429;28;20052;-65
2022/12/23 08:21:03;;;;;;;46.83;14.75;;;;;;;;;;5069344;28;20128;-65
2022/12/23 08:23:29;;;;;;;59.17;15.38;;;;;;;;;;5068418;28;20045;-65
2022/12/23 08:25:59;;;;;;;57.45;15.68;;;;;;;;;;5071688;28;20032;-65
2022/12/23 08:28:25;;;;;;;123.95;17.38;;;;;;;;;;5076038;28;20076;-66
2022/12/23 08:30:52;;;;;;;85.38;18.48;;;;;;;;;;5074077;28;20040;-65
2022/12/23 08:33:18;;;;;;;42.10;16.30;;;;;;;;;;5073856;28;20424;-65
2022/12/23 08:35:44;;;;;;;39.75;15.50;;;;;;;;;;5076144;28;20043;-63
2022/12/23 08:38:10;;;;;;;43.53;17.23;;;;;;;;;;5075418;28;20036;-63
2022/12/23 08:40:39;;;;;;;47.85;17.33;;;;;;;;;;5075830;28;20043;-63
2022/12/23 08:43:05;;;;;;;45.25;16.95;;;;;;;;;;5075327;28;20452;-62
2022/12/23 08:45:35;;;;;;;42.35;15.88;;;;;;;;;;5075225;28;20044;-62
2022/12/23 08:48:01;;;;;;;36.08;16.08;;;;;;;;;;5075859;28;20551;-62
2022/12/23 08:50:27;;;;;;;34.33;15.63;;;;;;;;;;5069379;28;20041;-62
2022/12/23 08:52:53;;;;;;;37.28;16.17;;;;;;;;;;5073872;28;20047;-62
2022/12/23 08:55:19;;;;;;;35.17;14.50;;;;;;;;;;5075419;28;20041;-63
2022/12/23 08:57:45;;;;;;;39.17;14.60;;;;;;;;;;5075220;28;20605;-63
2022/12/23 09:00:11;;;;;;;48.67;16.50;;;;;;;;;;5073210;28;20044;-63
2022/12/23 09:02:37;;;;;;;47.13;15.45;;;;;;;;;;5074238;28;20059;-63
2022/12/23 09:05:03;;;;;;;44.67;14.25;;;;;;;;;;5075995;28;20546;-63
2022/12/23 09:07:30;;;;;;;51.38;15.00;;;;;;;;;;5075726;28;20402;-64
2022/12/23 09:09:56;;;;;;;58.78;15.18;;;;;;;;;;5074197;28;20044;-63
2022/12/23 09:12:22;;;;;;;46.13;14.30;;;;;;;;;;5075601;28;20119;-63
2022/12/23 09:14:48;;;;;;;41.33;14.57;;;;;;;;;;5075019;28;20448;-63
2022/12/23 09:17:16;;;;;;;55.42;14.95;;;;;;;;;;5074641;28;20044;-63
2022/12/23 09:19:42;;;;;;;42.90;14.57;;;;;;;;;;5075388;28;20056;-64
2022/12/23 09:22:08;;;;;;;39.00;14.85;;;;;;;;;;5071963;28;20080;-62
2022/12/23 09:24:36;;;;;;;39.08;14.13;;;;;;;;;;5069909;28;20049;-63
2022/12/23 09:27:02;;;;;;;36.45;13.90;;;;;;;;;;5061944;28;20475;-63
2022/12/23 09:29:28;;;;;;;38.35;14.50;;;;;;;;;;5067318;28;20052;-64
2022/12/23 09:31:54;;;;;;;35.70;14.65;;;;;;;;;;5069802;28;20463;-62
2022/12/23 09:34:20;;;;;;;36.38;15.45;;;;;;;;;;5075198;28;20060;-64
2022/12/23 09:36:46;;;;;;;44.30;15.55;;;;;;;;;;5074884;28;20538;-65
2022/12/23 09:39:12;;;;;;;36.88;15.15;;;;;;;;;;5072222;28;20120;-64
2022/12/23 09:42:17;;;;;;;38.03;14.48;;;;;;;;;;5072310;28;20045;-64
2022/12/23 09:44:52;;;;;;;35.35;14.30;;;;;;;;;;5009770;28;20046;-64
2022/12/23 09:47:20;;;;;;;36.42;14.05;;;;;;;;;;5009761;28;20459;-65
2022/12/23 09:49:49;;;;;;;31.02;13.77;;;;;;;;;;5033277;28;20045;-64
2022/12/23 09:52:18;;;;;;;46.35;15.48;;;;;;;;;;5069107;28;20040;-64
2022/12/23 09:54:47;;;;;;;31.90;12.80;;;;;;;;;;5071116;28;20613;-64
2022/12/23 09:57:20;;;;;;;32.67;13.70;;;;;;;;;;5059722;28;20040;-64
2022/12/23 09:59:53;;;;;;;28.65;12.95;;;;;;;;;;5071885;28;20048;-63
2022/12/23 10:02:42;;;;;;;28.55;12.77;;;;;;;;;;5071306;28;20048;-63
2022/12/23 10:05:20;;;;;;;24.55;12.63;;;;;;;;;;5063966;28;20080;-63
2022/12/23 10:07:46;;;;;;;25.30;12.07;;;;;;;;;;5070285;28;20112;-63
2022/12/23 10:10:24;;;;;;;25.13;11.48;;;;;;;;;;5067362;28;20061;-63
2022/12/23 10:12:52;;;;;;;28.80;12.95;;;;;;;;;;5056450;28;20120;-63
2022/12/23 10:15:38;;;;;;;27.70;12.95;;;;;;;;;;5071740;28;20040;-58
2022/12/23 10:18:14;;;;;;;23.05;11.93;;;;;;;;;;5070707;28;20040;-59
2022/12/23 10:20:45;;;;;;;23.42;11.00;;;;;;;;;;5069609;28;20040;-60
2022/12/23 10:23:31;;;;;;;29.90;12.40;;;;;;;;;;5064907;28;20041;-59
2022/12/23 10:25:57;;;;;;;24.00;12.10;;;;;;;;;;5071534;28;20076;-59
2022/12/23 10:28:23;;;;;;;24.05;11.77;;;;;;;;;;5071157;28;20036;-60
2022/12/23 10:30:54;;;;;;;24.00;11.50;;;;;;;;;;5071801;28;20044;-59
2022/12/23 10:33:20;;;;;;;27.25;12.30;;;;;;;;;;5070648;28;20089;-59
2022/12/23 10:35:52;;;;;;;25.38;11.77;;;;;;;;;;5070939;28;20075;-59
2022/12/23 10:38:22;;;;;;;23.65;12.32;;;;;;;;;;5071312;28;20082;-58
2022/12/23 10:41:07;;;;;;;27.27;12.30;;;;;;;;;;5071561;28;20475;-61
2022/12/23 10:43:34;;;;;;;26.08;12.13;;;;;;;;;;5070699;28;20044;-58
2022/12/23 10:46:03;;;;;;;28.00;12.65;;;;;;;;;;5068048;28;20131;-59
2022/12/23 10:48:53;;;;;;;27.52;12.50;;;;;;;;;;5070425;28;20118;-60
2022/12/23 10:51:22;;;;;;;26.20;12.57;;;;;;;;;;5020503;28;20063;-58
2022/12/23 10:53:51;;;;;;;23.83;11.23;;;;;;;;;;5063300;28;20043;-58
2022/12/23 10:56:18;;;;;;;24.98;11.43;;;;;;;;;;5071104;28;20048;-60
2022/12/23 10:58:45;;;;;;;25.95;12.32;;;;;;;;;;5071153;28;20048;-59
2022/12/23 11:01:12;;;;;;;22.73;11.32;;;;;;;;;;5071164;28;20102;-59
2022/12/23 11:03:38;;;;;;;24.30;11.10;;;;;;;;;;5070935;28;20048;-59
2022/12/23 11:06:07;;;;;;;26.30;11.55;;;;;;;;;;5071077;28;20036;-59
2022/12/23 11:08:34;;;;;;;23.13;11.75;;;;;;;;;;5071166;28;20045;-58
2022/12/23 11:11:00;;;;;;;25.35;11.98;;;;;;;;;;5064667;28;20033;-57
2022/12/23 11:13:37;;;;;;;22.10;11.18;;;;;;;;;;5058801;28;20071;-60
2022/12/23 11:16:22;;;;;;;22.85;11.30;;;;;;;;;;5069855;28;20116;-58
2022/12/23 11:19:05;;;;;;;25.38;12.00;;;;;;;;;;5070718;28;20066;-58
2022/12/23 11:21:32;;;;;;;26.85;11.82;;;;;;;;;;5070601;28;20044;-58
2022/12/23 11:24:09;;;;;;;21.40;10.80;;;;;;;;;;5070739;28;20127;-58
2022/12/23 11:26:35;;;;;;;22.27;9.98;;;;;;;;;;5070773;28;20059;-57
2022/12/23 11:29:05;;;;;;;21.48;10.68;;;;;;;;;;5070667;28;20105;-58
2022/12/23 11:31:34;;;;;;;21.67;10.40;;;;;;;;;;5070986;28;20112;-56
2022/12/23 11:34:13;;;;;;;19.58;9.95;;;;;;;;;;5070532;28;20075;-58
2022/12/23 11:36:40;;;;;;;20.77;10.75;;;;;;;;;;5070993;28;20048;-58
2022/12/23 11:39:14;;;;;;;20.17;10.80;;;;;;;;;;5070709;28;20055;-58
2022/12/23 11:41:48;;;;;;;21.45;10.75;;;;;;;;;;5070452;28;20540;-58
2022/12/23 11:44:14;;;;;;;21.25;10.20;;;;;;;;;;5070335;28;20444;-59
2022/12/23 11:46:40;;;;;;;20.67;9.75;;;;;;;;;;5052947;28;20037;-59
2022/12/23 11:49:14;;;;;;;22.50;10.57;;;;;;;;;;5055082;28;20352;-58
2022/12/23 11:51:41;;;;;;;21.50;10.45;;;;;;;;;;5070375;28;20040;-58
2022/12/23 11:54:14;;;;;;;23.42;10.48;;;;;;;;;;5070115;28;20677;-58
2022/12/23 11:56:41;;;;;;;21.60;9.90;;;;;;;;;;5070166;28;20045;-59
2022/12/23 11:59:17;;;;;;;23.42;10.65;;;;;;;;;;5070264;28;20068;-57
2022/12/23 12:01:47;;;;;;;20.33;10.35;;;;;;;;;;5069975;28;20044;-56
2022/12/23 12:04:18;;;;;;;19.75;9.82;;;;;;;;;;5069281;28;20040;-58
2022/12/23 12:06:45;;;;;;;21.80;9.23;;;;;;;;;;5060688;28;20048;-59
2022/12/23 12:09:11;;;;;;;16.90;9.55;;;;;;;;;;5070253;28;20101;-56
2022/12/23 12:11:39;;;;;;;17.30;9.27;;;;;;;;;;5061528;28;20120;-56
2022/12/23 12:14:08;;;;;;;16.65;8.75;;;;;;;;;;5061757;28;20040;-56
2022/12/23 12:16:52;;;;;;;18.38;9.82;;;;;;;;;;5068742;28;20044;-56
2022/12/23 12:19:21;;;;;;;16.80;9.73;;;;;;;;;;5069292;28;20057;-56
2022/12/23 12:21:48;;;;;;;19.58;9.73;;;;;;;;;;5069937;28;20040;-57
2022/12/23 12:24:18;;;;;;;19.85;10.38;;;;;;;;;;5069136;28;20044;-57
2022/12/23 12:26:49;;;;;;;17.48;9.50;;;;;;;;;;5069419;28;20037;-56
2022/12/23 12:29:23;;;;;;;17.75;9.98;;;;;;;;;;5069596;28;20128;-56
2022/12/23 12:31:51;;;;;;;18.17;10.68;;;;;;;;;;5069899;28;20068;-56
2022/12/23 12:34:17;;;;;;;18.52;10.32;;;;;;;;;;5068617;28;20165;-56
2022/12/23 12:37:01;;;;;;;20.38;11.50;;;;;;;;;;5069934;28;20136;-56
2022/12/23 12:39:30;;;;;;;20.17;11.15;;;;;;;;;;5069365;28;20040;-53
2022/12/23 12:42:00;;;;;;;20.38;12.20;;;;;;;;;;5069368;28;20041;-54
2022/12/23 12:44:41;;;;;;;23.38;13.07;;;;;;;;;;5069207;28;20090;-56
2022/12/23 12:47:13;;;;;;;18.52;10.20;;;;;;;;;;5069624;28;20120;-56
2022/12/23 12:49:44;;;;;;;20.08;10.18;;;;;;;;;;5069298;28;20040;-56
2022/12/23 12:52:15;;;;;;;19.60;11.60;;;;;;;;;;5069539;28;20098;-55
2022/12/23 12:54:52;;;;;;;20.55;10.60;;;;;;;;;;5067835;28;20041;-55
2022/12/23 12:57:19;;;;;;;17.85;9.70;;;;;;;;;;5069328;28;20044;-52
2022/12/23 12:59:47;;;;;;;17.60;9.60;;;;;;;;;;5069571;28;20072;-56
2022/12/23 13:02:30;;;;;;;18.38;9.25;;;;;;;;;;5069162;28;20037;-56
2022/12/23 13:04:56;;;;;;;;;;;;;;;;;;5069449;28;20596;-55
2022/12/23 13:07:31;;;;;;;17.23;10.00;;;;;;;;;;5058385;28;19916;-56
2022/12/23 13:10:12;;;;;;;18.95;10.60;;;;;;;;;;5073750;28;20052;-55
2022/12/23 13:12:41;;;;;;;17.08;9.68;;;;;;;;;;5051629;28;20094;-53
2022/12/23 13:15:23;;;;;;;17.77;9.13;;;;;;;;;;5071283;28;20074;-57
2022/12/23 13:18:09;;;;;;;19.70;10.30;;;;;;;;;;5072727;28;20037;-56
2022/12/23 13:20:45;;;;;;;17.15;9.77;;;;;;;;;;5040574;28;20782;-57
2022/12/23 13:23:17;;;;;;;20.20;10.52;;;;;;;;;;5071906;28;20479;-57
2022/12/23 13:25:45;;;;;;;21.52;10.45;;;;;;;;;;5058642;28;20396;-63
2022/12/23 13:28:25;;;;;;;19.98;11.75;;;;;;;;;;5067562;28;20028;-63
2022/12/23 13:31:14;;;;;;;23.02;12.57;;;;;;;;;;5072816;28;20043;-63
2022/12/23 13:33:46;;;;;;;24.13;12.57;;;;;;;;;;5064325;28;20051;-62
2022/12/23 13:36:21;;;;;;;26.05;14.02;;;;;;;;;;5072949;28;20055;-61
2022/12/23 13:38:47;;;;;;;25.83;12.90;;;;;;;;;;5072636;28;20041;-63
2022/12/23 13:41:22;;;;;;;35.28;16.58;;;;;;;;;;5072185;28;20048;-62
2022/12/23 13:43:59;;;;;;;29.70;15.00;;;;;;;;;;5072421;28;20159;-63
2022/12/23 13:46:33;;;;;;;29.42;14.07;;;;;;;;;;5072828;28;20060;-63
2022/12/23 13:49:05;;;;;;;31.70;14.38;;;;;;;;;;5071825;28;20586;-63
2022/12/23 13:51:37;;;;;;;28.88;13.15;;;;;;;;;;5072338;28;20037;-66
2022/12/23 13:54:12;;;;;;;27.50;12.63;;;;;;;;;;5072788;28;20049;-66
2022/12/23 13:56:41;;;;;;;25.15;11.93;;;;;;;;;;5054419;28;20094;-66
2022/12/23 13:59:10;;;;;;;25.20;12.18;;;;;;;;;;5056204;28;20048;-66
2022/12/23 14:01:51;;;;;;;27.75;13.40;;;;;;;;;;5071413;28;20044;-66
2022/12/23 14:04:55;;;;;;;18.92;10.40;;;;;;;;;;5070697;28;20449;-66
2022/12/23 14:07:22;;;;;;;24.17;11.50;;;;;;;;;;4983549;28;20054;-66
2022/12/23 14:09:53;;;;;;;18.98;11.27;;;;;;;;;;4983239;28;20053;-66
2022/12/23 14:12:28;;;;;;;24.77;10.03;;;;;;;;;;5022505;28;20442;-67
2022/12/23 14:14:57;;;;;;;19.38;9.85;;;;;;;;;;5054913;28;20083;-66
2022/12/23 14:17:43;;;;;;;21.00;10.07;;;;;;;;;;5072255;28;20047;-66
2022/12/23 14:20:18;;;;;;;16.52;10.00;;;;;;;;;;5018015;28;20060;-66
2022/12/23 14:23:03;;;;;;;21.15;10.45;;;;;;;;;;5053617;28;20060;-66
2022/12/23 14:25:29;;;;;;;23.15;11.02;;;;;;;;;;5076225;28;20047;-66
2022/12/23 14:28:12;;;;;;;23.88;11.27;;;;;;;;;;5072331;28;20475;-66
2022/12/23 14:30:41;;;;;;;25.48;11.80;;;;;;;;;;5072040;28;20048;-66
2022/12/23 14:33:24;;;;;;;23.77;11.60;;;;;;;;;;5071775;28;20048;-66
2022/12/23 14:35:52;;;;;;;20.30;10.77;;;;;;;;;;5071582;28;20044;-66
2022/12/23 14:38:22;;;;;;;26.42;12.13;;;;;;;;;;5072137;28;20131;-66
2022/12/23 14:40:50;;;;;;;22.17;11.55;;;;;;;;;;5071525;28;20063;-66
2022/12/23 14:43:27;;;;;;;20.05;10.63;;;;;;;;;;5071895;28;20036;-66
2022/12/23 14:45:54;;;;;;;20.90;11.23;;;;;;;;;;5072232;28;20454;-66
2022/12/23 14:48:35;;;;;;;23.60;11.60;;;;;;;;;;5070495;28;20036;-66
2022/12/23 14:51:02;;;;;;;23.90;11.98;;;;;;;;;;5072205;28;20043;-66
2022/12/23 14:53:32;;;;;;;20.40;10.82;;;;;;;;;;5072133;28;20111;-66
2022/12/23 14:56:11;;;;;;;18.63;9.80;;;;;;;;;;5071572;28;20045;-66
2022/12/23 14:58:56;;;;;;;18.88;10.23;;;;;;;;;;5072109;28;20051;-66